sensor_id;sensor_type;location;lat;lon;timestamp;P1;durP1;ratioP1;P2;durP2;ratioP2
20042;SDS011;10182;52.896;6.496;2024-02-21T00:02:58;13.73;;;3.50;;
20042;SDS011;10182;52.896;6.496;2024-02-21T00:08:02;13.93;;;4.40;;
20042;SDS011;10182;52.896;6.496;2024-02-21T00:13:07;11.90;;;3.33;;
20042;SDS011;10182;52.896;6.496;2024-02-21T00:18:08;14.03;;;4.40;;
20042;SDS011;10182;52.896;6.496;2024-02-21T00:23:11;11.13;;;3.57;;
20042;SDS011;10182;52.896;6.496;2024-02-21T00:28:15;15.47;;;4.00;;
20042;SDS011;10182;52.896;6.496;2024-02-21T00:33:17;11.03;;;4.13;;
20042;SDS011;10182;52.896;6.496;2024-02-21T00:38:18;13.83;;;4.40;;
20042;SDS011;10182;52.896;6.496;2024-02-21T00:43:22;14.63;;;4.53;;
20042;SDS011;10182;52.896;6.496;2024-02-21T00:48:24;15.73;;;4.57;;
20042;SDS011;10182;52.896;6.496;2024-02-21T00:53:29;13.70;;;3.93;;
20042;SDS011;10182;52.896;6.496;2024-02-21T00:58:32;15.13;;;5.10;;
20042;SDS011;10182;52.896;6.496;2024-02-21T01:03:33;19.57;;;5.80;;
20042;SDS011;10182;52.896;6.496;2024-02-21T01:08:35;15.83;;;5.37;;
20042;SDS011;10182;52.896;6.496;2024-02-21T01:13:38;13.90;;;5.87;;
20042;SDS011;10182;52.896;6.496;2024-02-21T01:18:40;18.27;;;7.27;;
20042;SDS011;10182;52.896;6.496;2024-02-21T01:23:41;23.87;;;10.10;;
20042;SDS011;10182;52.896;6.496;2024-02-21T01:28:44;23.17;;;11.90;;
20042;SDS011;10182;52.896;6.496;2024-02-21T01:33:46;23.23;;;10.10;;
20042;SDS011;10182;52.896;6.496;2024-02-21T01:38:48;25.37;;;11.17;;
20042;SDS011;10182;52.896;6.496;2024-02-21T01:43:53;22.67;;;10.50;;
20042;SDS011;10182;52.896;6.496;2024-02-21T01:48:58;25.40;;;10.87;;
20042;SDS011;10182;52.896;6.496;2024-02-21T01:54:00;24.57;;;11.27;;
20042;SDS011;10182;52.896;6.496;2024-02-21T01:59:04;22.50;;;10.73;;
20042;SDS011;10182;52.896;6.496;2024-02-21T02:04:05;21.37;;;11.10;;
20042;SDS011;10182;52.896;6.496;2024-02-21T02:09:08;29.17;;;11.57;;
20042;SDS011;10182;52.896;6.496;2024-02-21T02:14:11;27.07;;;11.37;;
20042;SDS011;10182;52.896;6.496;2024-02-21T02:19:12;25.90;;;10.70;;
20042;SDS011;10182;52.896;6.496;2024-02-21T02:24:17;29.93;;;12.00;;
20042;SDS011;10182;52.896;6.496;2024-02-21T02:29:19;28.90;;;11.07;;
20042;SDS011;10182;52.896;6.496;2024-02-21T02:34:20;36.57;;;12.57;;
20042;SDS011;10182;52.896;6.496;2024-02-21T02:39:23;25.40;;;9.77;;
20042;SDS011;10182;52.896;6.496;2024-02-21T02:44:25;27.83;;;9.03;;
20042;SDS011;10182;52.896;6.496;2024-02-21T02:49:27;22.17;;;8.87;;
20042;SDS011;10182;52.896;6.496;2024-02-21T02:54:30;19.27;;;8.37;;
20042;SDS011;10182;52.896;6.496;2024-02-21T02:59:31;18.27;;;8.13;;
20042;SDS011;10182;52.896;6.496;2024-02-21T03:04:33;35.30;;;8.97;;
20042;SDS011;10182;52.896;6.496;2024-02-21T03:09:36;27.23;;;8.70;;
20042;SDS011;10182;52.896;6.496;2024-02-21T03:14:38;25.97;;;9.50;;
20042;SDS011;10182;52.896;6.496;2024-02-21T03:19:39;27.27;;;10.13;;
20042;SDS011;10182;52.896;6.496;2024-02-21T03:24:42;28.27;;;9.53;;
20042;SDS011;10182;52.896;6.496;2024-02-21T03:29:44;24.17;;;10.17;;
20042;SDS011;10182;52.896;6.496;2024-02-21T03:34:46;25.70;;;9.17;;
20042;SDS011;10182;52.896;6.496;2024-02-21T03:39:49;24.13;;;10.33;;
20042;SDS011;10182;52.896;6.496;2024-02-21T03:44:50;20.93;;;9.93;;
20042;SDS011;10182;52.896;6.496;2024-02-21T03:49:52;23.77;;;9.87;;
20042;SDS011;10182;52.896;6.496;2024-02-21T03:54:55;18.27;;;9.67;;
20042;SDS011;10182;52.896;6.496;2024-02-21T03:59:57;25.77;;;10.80;;
20042;SDS011;10182;52.896;6.496;2024-02-21T04:04:58;27.87;;;11.13;;
20042;SDS011;10182;52.896;6.496;2024-02-21T04:10:01;24.23;;;11.70;;
20042;SDS011;10182;52.896;6.496;2024-02-21T04:15:03;27.53;;;11.70;;
20042;SDS011;10182;52.896;6.496;2024-02-21T04:20:06;27.50;;;12.17;;
20042;SDS011;10182;52.896;6.496;2024-02-21T04:25:16;30.47;;;12.53;;
20042;SDS011;10182;52.896;6.496;2024-02-21T04:30:19;29.67;;;13.70;;
20042;SDS011;10182;52.896;6.496;2024-02-21T04:35:21;33.00;;;12.27;;
20042;SDS011;10182;52.896;6.496;2024-02-21T04:40:24;38.03;;;14.23;;
20042;SDS011;10182;52.896;6.496;2024-02-21T04:45:25;32.50;;;12.40;;
20042;SDS011;10182;52.896;6.496;2024-02-21T04:50:27;47.50;;;12.80;;
20042;SDS011;10182;52.896;6.496;2024-02-21T04:55:30;36.87;;;13.60;;
20042;SDS011;10182;52.896;6.496;2024-02-21T05:00:32;39.33;;;13.33;;
20042;SDS011;10182;52.896;6.496;2024-02-21T05:05:33;41.17;;;13.90;;
20042;SDS011;10182;52.896;6.496;2024-02-21T05:10:37;46.97;;;12.90;;
20042;SDS011;10182;52.896;6.496;2024-02-21T05:15:38;41.87;;;12.37;;
20042;SDS011;10182;52.896;6.496;2024-02-21T05:20:43;45.13;;;13.20;;
20042;SDS011;10182;52.896;6.496;2024-02-21T05:25:46;36.60;;;12.67;;
20042;SDS011;10182;52.896;6.496;2024-02-21T05:30:48;34.77;;;11.43;;
20042;SDS011;10182;52.896;6.496;2024-02-21T05:35:49;38.87;;;11.33;;
20042;SDS011;10182;52.896;6.496;2024-02-21T05:40:53;40.80;;;10.80;;
20042;SDS011;10182;52.896;6.496;2024-02-21T05:45:55;34.47;;;9.30;;
20042;SDS011;10182;52.896;6.496;2024-02-21T05:50:57;28.70;;;10.47;;
20042;SDS011;10182;52.896;6.496;2024-02-21T05:56:04;40.17;;;13.10;;
20042;SDS011;10182;52.896;6.496;2024-02-21T06:01:05;44.67;;;13.37;;
20042;SDS011;10182;52.896;6.496;2024-02-21T06:06:08;44.47;;;13.63;;
20042;SDS011;10182;52.896;6.496;2024-02-21T06:11:11;40.93;;;13.30;;
20042;SDS011;10182;52.896;6.496;2024-02-21T06:16:12;39.33;;;11.70;;
20042;SDS011;10182;52.896;6.496;2024-02-21T06:21:14;34.73;;;10.90;;
20042;SDS011;10182;52.896;6.496;2024-02-21T06:26:18;40.33;;;10.87;;
20042;SDS011;10182;52.896;6.496;2024-02-21T06:31:19;34.47;;;11.33;;
20042;SDS011;10182;52.896;6.496;2024-02-21T06:36:21;30.67;;;11.57;;
20042;SDS011;10182;52.896;6.496;2024-02-21T06:41:24;31.47;;;12.33;;
20042;SDS011;10182;52.896;6.496;2024-02-21T06:46:26;31.07;;;13.17;;
20042;SDS011;10182;52.896;6.496;2024-02-21T06:51:29;27.67;;;13.47;;
20042;SDS011;10182;52.896;6.496;2024-02-21T06:56:32;34.03;;;14.13;;
20042;SDS011;10182;52.896;6.496;2024-02-21T07:01:34;31.07;;;12.70;;
20042;SDS011;10182;52.896;6.496;2024-02-21T07:06:35;27.70;;;12.53;;
20042;SDS011;10182;52.896;6.496;2024-02-21T07:11:38;31.00;;;12.83;;
20042;SDS011;10182;52.896;6.496;2024-02-21T07:16:40;29.70;;;12.73;;
20042;SDS011;10182;52.896;6.496;2024-02-21T07:21:42;30.60;;;12.57;;
20042;SDS011;10182;52.896;6.496;2024-02-21T07:26:45;35.33;;;15.23;;
20042;SDS011;10182;52.896;6.496;2024-02-21T07:31:49;34.43;;;16.97;;
20042;SDS011;10182;52.896;6.496;2024-02-21T07:36:52;38.70;;;18.67;;
20042;SDS011;10182;52.896;6.496;2024-02-21T07:41:57;32.53;;;17.50;;
20042;SDS011;10182;52.896;6.496;2024-02-21T07:46:59;34.10;;;17.73;;
20042;SDS011;10182;52.896;6.496;2024-02-21T07:52:00;33.23;;;17.93;;
20042;SDS011;10182;52.896;6.496;2024-02-21T07:57:04;36.00;;;20.17;;
20042;SDS011;10182;52.896;6.496;2024-02-21T08:02:06;27.30;;;17.80;;
20042;SDS011;10182;52.896;6.496;2024-02-21T08:07:08;32.50;;;20.27;;
20042;SDS011;10182;52.896;6.496;2024-02-21T08:12:11;30.03;;;19.50;;
20042;SDS011;10182;52.896;6.496;2024-02-21T08:17:13;29.63;;;18.10;;
20042;SDS011;10182;52.896;6.496;2024-02-21T08:22:15;35.73;;;18.40;;
20042;SDS011;10182;52.896;6.496;2024-02-21T08:27:18;27.47;;;17.83;;
20042;SDS011;10182;52.896;6.496;2024-02-21T08:32:20;33.63;;;18.50;;
20042;SDS011;10182;52.896;6.496;2024-02-21T08:37:21;28.50;;;17.63;;
20042;SDS011;10182;52.896;6.496;2024-02-21T08:42:27;28.17;;;17.97;;
20042;SDS011;10182;52.896;6.496;2024-02-21T08:47:33;27.30;;;18.77;;
20042;SDS011;10182;52.896;6.496;2024-02-21T08:52:35;26.27;;;18.47;;
20042;SDS011;10182;52.896;6.496;2024-02-21T08:57:38;25.53;;;17.60;;
20042;SDS011;10182;52.896;6.496;2024-02-21T09:02:43;30.27;;;19.90;;
20042;SDS011;10182;52.896;6.496;2024-02-21T09:07:44;30.90;;;21.50;;
20042;SDS011;10182;52.896;6.496;2024-02-21T09:12:47;35.00;;;22.37;;
20042;SDS011;10182;52.896;6.496;2024-02-21T09:17:49;30.10;;;20.87;;
20042;SDS011;10182;52.896;6.496;2024-02-21T09:22:51;34.43;;;23.17;;
20042;SDS011;10182;52.896;6.496;2024-02-21T09:27:54;33.73;;;23.50;;
20042;SDS011;10182;52.896;6.496;2024-02-21T09:33:00;30.53;;;22.97;;
20042;SDS011;10182;52.896;6.496;2024-02-21T09:38:13;34.27;;;23.17;;
20042;SDS011;10182;52.896;6.496;2024-02-21T09:43:19;38.10;;;23.80;;
20042;SDS011;10182;52.896;6.496;2024-02-21T09:48:25;30.87;;;22.77;;
20042;SDS011;10182;52.896;6.496;2024-02-21T09:53:44;33.07;;;23.07;;
20042;SDS011;10182;52.896;6.496;2024-02-21T09:58:49;31.13;;;24.67;;
20042;SDS011;10182;52.896;6.496;2024-02-21T10:03:50;32.47;;;24.37;;
20042;SDS011;10182;52.896;6.496;2024-02-21T10:08:52;31.37;;;21.77;;
20042;SDS011;10182;52.896;6.496;2024-02-21T10:14:04;32.50;;;22.47;;
20042;SDS011;10182;52.896;6.496;2024-02-21T10:19:07;27.87;;;22.00;;
20042;SDS011;10182;52.896;6.496;2024-02-21T10:24:25;32.13;;;20.87;;
20042;SDS011;10182;52.896;6.496;2024-02-21T10:29:29;34.13;;;20.53;;
20042;SDS011;10182;52.896;6.496;2024-02-21T10:34:31;27.43;;;19.20;;
20042;SDS011;10182;52.896;6.496;2024-02-21T10:39:36;26.57;;;19.87;;
20042;SDS011;10182;52.896;6.496;2024-02-21T10:44:40;26.43;;;18.53;;
20042;SDS011;10182;52.896;6.496;2024-02-21T10:49:42;24.77;;;18.37;;
20042;SDS011;10182;52.896;6.496;2024-02-21T10:54:48;25.23;;;17.33;;
20042;SDS011;10182;52.896;6.496;2024-02-21T10:59:59;21.93;;;15.20;;
20042;SDS011;10182;52.896;6.496;2024-02-21T11:05:01;20.33;;;14.23;;
20042;SDS011;10182;52.896;6.496;2024-02-21T11:10:05;19.73;;;13.43;;
20042;SDS011;10182;52.896;6.496;2024-02-21T11:15:09;19.70;;;13.10;;
20042;SDS011;10182;52.896;6.496;2024-02-21T11:20:13;19.83;;;11.97;;
20042;SDS011;10182;52.896;6.496;2024-02-21T11:25:21;20.73;;;12.63;;
20042;SDS011;10182;52.896;6.496;2024-02-21T11:30:27;16.73;;;11.70;;
20042;SDS011;10182;52.896;6.496;2024-02-21T11:35:31;14.30;;;11.90;;
20042;SDS011;10182;52.896;6.496;2024-02-21T11:40:34;14.83;;;11.33;;
20042;SDS011;10182;52.896;6.496;2024-02-21T11:45:43;17.47;;;11.30;;
20042;SDS011;10182;52.896;6.496;2024-02-21T11:50:52;15.33;;;11.67;;
20042;SDS011;10182;52.896;6.496;2024-02-21T11:55:54;14.60;;;10.83;;
20042;SDS011;10182;52.896;6.496;2024-02-21T12:00:58;15.83;;;10.87;;
20042;SDS011;10182;52.896;6.496;2024-02-21T12:06:03;16.67;;;10.63;;
20042;SDS011;10182;52.896;6.496;2024-02-21T12:11:05;15.07;;;10.00;;
20042;SDS011;10182;52.896;6.496;2024-02-21T12:16:21;13.73;;;10.17;;
20042;SDS011;10182;52.896;6.496;2024-02-21T12:21:23;17.10;;;11.43;;
20042;SDS011;10182;52.896;6.496;2024-02-21T12:26:26;11.70;;;8.73;;
20042;SDS011;10182;52.896;6.496;2024-02-21T12:31:29;12.23;;;9.80;;
20042;SDS011;10182;52.896;6.496;2024-02-21T12:36:30;10.90;;;9.20;;
20042;SDS011;10182;52.896;6.496;2024-02-21T12:41:35;11.90;;;8.73;;
20042;SDS011;10182;52.896;6.496;2024-02-21T12:46:46;13.30;;;8.87;;
20042;SDS011;10182;52.896;6.496;2024-02-21T12:51:51;9.80;;;8.23;;
20042;SDS011;10182;52.896;6.496;2024-02-21T12:56:53;9.77;;;7.37;;
20042;SDS011;10182;52.896;6.496;2024-02-21T13:01:56;8.47;;;6.97;;
20042;SDS011;10182;52.896;6.496;2024-02-21T13:06:58;12.50;;;7.87;;
20042;SDS011;10182;52.896;6.496;2024-02-21T13:12:00;9.10;;;7.23;;
20042;SDS011;10182;52.896;6.496;2024-02-21T13:17:04;7.70;;;6.47;;
20042;SDS011;10182;52.896;6.496;2024-02-21T13:22:06;7.80;;;7.00;;
20042;SDS011;10182;52.896;6.496;2024-02-21T13:27:07;10.03;;;6.23;;
20042;SDS011;10182;52.896;6.496;2024-02-21T13:32:10;7.77;;;6.23;;
20042;SDS011;10182;52.896;6.496;2024-02-21T13:37:12;9.30;;;7.27;;
20042;SDS011;10182;52.896;6.496;2024-02-21T13:42:15;9.70;;;7.37;;
20042;SDS011;10182;52.896;6.496;2024-02-21T13:47:18;7.53;;;6.70;;
20042;SDS011;10182;52.896;6.496;2024-02-21T13:52:21;9.03;;;7.57;;
20042;SDS011;10182;52.896;6.496;2024-02-21T13:57:26;10.53;;;6.80;;
20042;SDS011;10182;52.896;6.496;2024-02-21T14:02:29;8.03;;;7.07;;
20042;SDS011;10182;52.896;6.496;2024-02-21T14:07:30;12.00;;;8.43;;
20042;SDS011;10182;52.896;6.496;2024-02-21T14:12:33;11.93;;;7.67;;
20042;SDS011;10182;52.896;6.496;2024-02-21T14:17:36;10.83;;;7.23;;
20042;SDS011;10182;52.896;6.496;2024-02-21T14:22:39;11.20;;;7.57;;
20042;SDS011;10182;52.896;6.496;2024-02-21T14:27:40;12.53;;;7.50;;
20042;SDS011;10182;52.896;6.496;2024-02-21T14:32:45;13.00;;;7.60;;
20042;SDS011;10182;52.896;6.496;2024-02-21T14:37:47;11.50;;;7.50;;
20042;SDS011;10182;52.896;6.496;2024-02-21T14:42:49;10.67;;;7.17;;
20042;SDS011;10182;52.896;6.496;2024-02-21T14:47:53;11.40;;;7.90;;
20042;SDS011;10182;52.896;6.496;2024-02-21T14:52:55;12.03;;;7.10;;
20042;SDS011;10182;52.896;6.496;2024-02-21T14:57:57;16.57;;;7.33;;
20042;SDS011;10182;52.896;6.496;2024-02-21T15:03:00;10.93;;;6.90;;
20042;SDS011;10182;52.896;6.496;2024-02-21T15:08:03;10.97;;;7.53;;
20042;SDS011;10182;52.896;6.496;2024-02-21T15:13:07;10.70;;;7.23;;
20042;SDS011;10182;52.896;6.496;2024-02-21T15:18:10;11.20;;;7.57;;
20042;SDS011;10182;52.896;6.496;2024-02-21T15:23:12;9.87;;;6.47;;
20042;SDS011;10182;52.896;6.496;2024-02-21T15:28:14;11.00;;;7.17;;
20042;SDS011;10182;52.896;6.496;2024-02-21T15:33:17;11.03;;;6.50;;
20042;SDS011;10182;52.896;6.496;2024-02-21T15:38:18;19.30;;;7.30;;
20042;SDS011;10182;52.896;6.496;2024-02-21T15:43:20;12.77;;;7.93;;
20042;SDS011;10182;52.896;6.496;2024-02-21T15:48:26;15.83;;;9.93;;
20042;SDS011;10182;52.896;6.496;2024-02-21T15:53:27;11.50;;;7.87;;
20042;SDS011;10182;52.896;6.496;2024-02-21T15:58:30;9.40;;;7.47;;
20042;SDS011;10182;52.896;6.496;2024-02-21T16:03:34;11.13;;;6.87;;
20042;SDS011;10182;52.896;6.496;2024-02-21T16:08:36;10.80;;;7.33;;
20042;SDS011;10182;52.896;6.496;2024-02-21T16:13:40;14.33;;;7.37;;
20042;SDS011;10182;52.896;6.496;2024-02-21T16:18:43;15.80;;;9.60;;
20042;SDS011;10182;52.896;6.496;2024-02-21T16:23:46;19.33;;;12.87;;
20042;SDS011;10182;52.896;6.496;2024-02-21T16:28:48;15.20;;;9.13;;
20042;SDS011;10182;52.896;6.496;2024-02-21T16:33:51;20.90;;;8.37;;
20042;SDS011;10182;52.896;6.496;2024-02-21T16:38:53;14.13;;;7.33;;
20042;SDS011;10182;52.896;6.496;2024-02-21T16:43:55;13.27;;;7.43;;
20042;SDS011;10182;52.896;6.496;2024-02-21T16:48:58;13.17;;;7.17;;
20042;SDS011;10182;52.896;6.496;2024-02-21T16:54:00;11.40;;;7.50;;
20042;SDS011;10182;52.896;6.496;2024-02-21T16:59:08;8.90;;;6.90;;
20042;SDS011;10182;52.896;6.496;2024-02-21T17:04:11;14.37;;;7.90;;
20042;SDS011;10182;52.896;6.496;2024-02-21T17:09:15;12.90;;;9.20;;
20042;SDS011;10182;52.896;6.496;2024-02-21T17:14:17;9.40;;;7.27;;
20042;SDS011;10182;52.896;6.496;2024-02-21T17:19:21;13.50;;;8.47;;
20042;SDS011;10182;52.896;6.496;2024-02-21T17:24:22;16.67;;;8.23;;
20042;SDS011;10182;52.896;6.496;2024-02-21T17:29:24;12.40;;;7.30;;
20042;SDS011;10182;52.896;6.496;2024-02-21T17:34:28;11.73;;;7.17;;
20042;SDS011;10182;52.896;6.496;2024-02-21T17:39:30;22.70;;;14.97;;
20042;SDS011;10182;52.896;6.496;2024-02-21T17:44:32;19.23;;;13.30;;
20042;SDS011;10182;52.896;6.496;2024-02-21T17:49:36;15.17;;;9.17;;
20042;SDS011;10182;52.896;6.496;2024-02-21T17:54:38;10.90;;;7.63;;
20042;SDS011;10182;52.896;6.496;2024-02-21T17:59:44;10.50;;;7.37;;
20042;SDS011;10182;52.896;6.496;2024-02-21T18:04:47;9.70;;;7.47;;
20042;SDS011;10182;52.896;6.496;2024-02-21T18:09:48;9.43;;;6.70;;
20042;SDS011;10182;52.896;6.496;2024-02-21T18:14:50;14.23;;;7.40;;
20042;SDS011;10182;52.896;6.496;2024-02-21T18:19:53;8.90;;;6.60;;
20042;SDS011;10182;52.896;6.496;2024-02-21T18:24:58;9.77;;;6.53;;
20042;SDS011;10182;52.896;6.496;2024-02-21T18:29:59;9.13;;;6.20;;
20042;SDS011;10182;52.896;6.496;2024-02-21T18:35:04;9.97;;;5.80;;
20042;SDS011;10182;52.896;6.496;2024-02-21T18:40:07;7.93;;;5.90;;
20042;SDS011;10182;52.896;6.496;2024-02-21T18:45:12;7.77;;;5.87;;
20042;SDS011;10182;52.896;6.496;2024-02-21T18:50:16;10.13;;;7.03;;
20042;SDS011;10182;52.896;6.496;2024-02-21T18:55:24;12.63;;;7.13;;
20042;SDS011;10182;52.896;6.496;2024-02-21T19:00:26;14.80;;;8.47;;
20042;SDS011;10182;52.896;6.496;2024-02-21T19:05:30;13.87;;;8.53;;
20042;SDS011;10182;52.896;6.496;2024-02-21T19:10:32;9.40;;;7.30;;
20042;SDS011;10182;52.896;6.496;2024-02-21T19:15:34;12.63;;;9.27;;
20042;SDS011;10182;52.896;6.496;2024-02-21T19:20:41;10.83;;;8.00;;
20042;SDS011;10182;52.896;6.496;2024-02-21T19:25:44;11.37;;;8.20;;
20042;SDS011;10182;52.896;6.496;2024-02-21T19:30:45;9.63;;;7.87;;
20042;SDS011;10182;52.896;6.496;2024-02-21T19:35:48;15.03;;;9.00;;
20042;SDS011;10182;52.896;6.496;2024-02-21T19:40:50;12.03;;;8.93;;
20042;SDS011;10182;52.896;6.496;2024-02-21T19:45:54;11.73;;;9.03;;
20042;SDS011;10182;52.896;6.496;2024-02-21T19:50:57;11.13;;;8.67;;
20042;SDS011;10182;52.896;6.496;2024-02-21T19:56:00;8.93;;;7.70;;
20042;SDS011;10182;52.896;6.496;2024-02-21T20:01:02;8.90;;;7.97;;
20042;SDS011;10182;52.896;6.496;2024-02-21T20:06:06;9.00;;;8.00;;
20042;SDS011;10182;52.896;6.496;2024-02-21T20:11:08;8.30;;;7.50;;
20042;SDS011;10182;52.896;6.496;2024-02-21T20:16:10;9.30;;;7.90;;
20042;SDS011;10182;52.896;6.496;2024-02-21T20:21:14;11.33;;;8.20;;
20042;SDS011;10182;52.896;6.496;2024-02-21T20:26:15;8.53;;;7.50;;
20042;SDS011;10182;52.896;6.496;2024-02-21T20:31:17;9.27;;;8.30;;
20042;SDS011;10182;52.896;6.496;2024-02-21T20:36:23;9.10;;;8.30;;
20042;SDS011;10182;52.896;6.496;2024-02-21T20:41:24;12.20;;;9.17;;
20042;SDS011;10182;52.896;6.496;2024-02-21T20:46:26;11.43;;;8.87;;
20042;SDS011;10182;52.896;6.496;2024-02-21T20:51:29;9.50;;;8.60;;
20042;SDS011;10182;52.896;6.496;2024-02-21T20:56:31;11.83;;;9.13;;
20042;SDS011;10182;52.896;6.496;2024-02-21T21:01:33;9.97;;;9.07;;
20042;SDS011;10182;52.896;6.496;2024-02-21T21:06:36;10.07;;;9.00;;
20042;SDS011;10182;52.896;6.496;2024-02-21T21:11:37;10.43;;;9.33;;
20042;SDS011;10182;52.896;6.496;2024-02-21T21:16:39;10.20;;;9.07;;
20042;SDS011;10182;52.896;6.496;2024-02-21T21:21:42;10.90;;;9.70;;
20042;SDS011;10182;52.896;6.496;2024-02-21T21:26:45;10.57;;;9.00;;
20042;SDS011;10182;52.896;6.496;2024-02-21T21:31:47;10.30;;;9.20;;
20042;SDS011;10182;52.896;6.496;2024-02-21T21:36:50;10.80;;;9.20;;
20042;SDS011;10182;52.896;6.496;2024-02-21T21:41:52;9.63;;;8.73;;
20042;SDS011;10182;52.896;6.496;2024-02-21T21:46:54;10.63;;;9.63;;
20042;SDS011;10182;52.896;6.496;2024-02-21T21:51:57;10.03;;;9.13;;
20042;SDS011;10182;52.896;6.496;2024-02-21T21:56:58;9.53;;;8.63;;
20042;SDS011;10182;52.896;6.496;2024-02-21T22:02:03;8.33;;;7.63;;
20042;SDS011;10182;52.896;6.496;2024-02-21T22:07:06;9.33;;;8.43;;
20042;SDS011;10182;52.896;6.496;2024-02-21T22:12:08;9.47;;;8.57;;
20042;SDS011;10182;52.896;6.496;2024-02-21T22:17:10;8.50;;;7.80;;
20042;SDS011;10182;52.896;6.496;2024-02-21T22:22:13;9.60;;;8.67;;
20042;SDS011;10182;52.896;6.496;2024-02-21T22:27:17;9.77;;;8.87;;
20042;SDS011;10182;52.896;6.496;2024-02-21T22:32:19;9.50;;;8.47;;
20042;SDS011;10182;52.896;6.496;2024-02-21T22:37:22;8.73;;;7.93;;
20042;SDS011;10182;52.896;6.496;2024-02-21T22:42:27;8.17;;;7.47;;
20042;SDS011;10182;52.896;6.496;2024-02-21T22:47:31;7.53;;;6.90;;
20042;SDS011;10182;52.896;6.496;2024-02-21T22:52:34;8.07;;;7.33;;
20042;SDS011;10182;52.896;6.496;2024-02-21T22:57:35;8.50;;;7.80;;
20042;SDS011;10182;52.896;6.496;2024-02-21T23:02:37;7.80;;;7.10;;
20042;SDS011;10182;52.896;6.496;2024-02-21T23:07:40;8.00;;;7.37;;
20042;SDS011;10182;52.896;6.496;2024-02-21T23:12:42;9.07;;;8.23;;
20042;SDS011;10182;52.896;6.496;2024-02-21T23:17:44;7.23;;;6.63;;
20042;SDS011;10182;52.896;6.496;2024-02-21T23:22:47;9.07;;;7.57;;
20042;SDS011;10182;52.896;6.496;2024-02-21T23:27:49;8.37;;;7.67;;
20042;SDS011;10182;52.896;6.496;2024-02-21T23:32:50;9.30;;;8.50;;
20042;SDS011;10182;52.896;6.496;2024-02-21T23:37:53;8.07;;;7.37;;
20042;SDS011;10182;52.896;6.496;2024-02-21T23:42:55;8.93;;;8.13;;
20042;SDS011;10182;52.896;6.496;2024-02-21T23:47:58;8.50;;;7.80;;
20042;SDS011;10182;52.896;6.496;2024-02-21T23:53:01;9.47;;;8.67;;
20042;SDS011;10182;52.896;6.496;2024-02-21T23:58:02;9.50;;;8.70;;
